Time;durP1;ratioP1;P1;durP2;ratioP2;P2;SDS_P1;SDS_P2;PMS_P1;PMS_P2;Temp;Humidity;BMP_temperature;BMP_pressure;BME280_temperature;BME280_humidity;BME280_pressure;Samples;Min_cycle;Max_cycle;Signal;HPM_P1;HPM_P2
2021/01/11 00:01:24;;;;;;;21.58;13.73;;;-0.80;99.90;;;;;;5079049;28;20249;-84
2021/01/11 00:03:52;;;;;;;25.27;15.07;;;-0.80;99.90;;;;;;5080958;28;20243;-85
2021/01/11 00:06:21;;;;;;;26.67;13.82;;;-1.00;99.90;;;;;;5081215;28;20656;-85
2021/01/11 00:08:48;;;;;;;22.85;13.40;;;-0.70;99.90;;;;;;5080947;28;20293;-83
2021/01/11 00:11:21;;;;;;;24.02;13.77;;;-1.00;99.90;;;;;;5080936;28;20564;-85
2021/01/11 00:13:49;;;;;;;24.52;14.38;;;-0.70;99.90;;;;;;5080085;28;20226;-85
2021/01/11 00:16:15;;;;;;;27.17;16.33;;;-0.90;99.90;;;;;;5081680;28;20727;-84
2021/01/11 00:18:42;;;;;;;25.15;14.30;;;-0.80;99.90;;;;;;5082321;28;20201;-83
2021/01/11 00:21:15;;;;;;;26.73;14.80;;;-0.70;99.90;;;;;;5084977;28;20201;-85
2021/01/11 00:23:42;;;;;;;24.77;15.13;;;-1.10;99.90;;;;;;5084758;28;20237;-86
2021/01/11 00:26:10;;;;;;;23.13;14.52;;;-1.10;99.90;;;;;;5086968;28;20259;-85
2021/01/11 00:28:36;;;;;;;25.58;13.60;;;-1.10;99.90;;;;;;5081047;28;20591;-87
2021/01/11 00:31:03;;;;;;;21.75;13.20;;;-1.10;99.90;;;;;;5078300;28;20212;-87
2021/01/11 00:33:29;;;;;;;25.02;14.30;;;-1.00;99.90;;;;;;5079004;28;20222;-84
2021/01/11 00:35:56;;;;;;;27.42;14.93;;;-1.20;99.90;;;;;;5079503;28;20202;-84
2021/01/11 00:38:23;;;;;;;25.42;14.25;;;-1.10;99.90;;;;;;5078554;28;20209;-85
2021/01/11 00:40:50;;;;;;;22.27;13.15;;;-1.30;99.90;;;;;;5078825;28;20201;-84
2021/01/11 00:43:17;;;;;;;22.95;13.55;;;-1.00;99.90;;;;;;5081730;28;20232;-82
2021/01/11 00:45:44;;;;;;;26.50;13.98;;;-1.20;99.90;;;;;;5080907;28;20220;-85
2021/01/11 00:48:11;;;;;;;23.83;13.30;;;-1.10;99.90;;;;;;5082391;28;20208;-86
2021/01/11 00:50:37;;;;;;;25.77;14.25;;;-1.20;99.90;;;;;;5081088;28;20225;-86
2021/01/11 00:53:04;;;;;;;21.42;13.52;;;-1.10;99.90;;;;;;5077476;28;20217;-87
2021/01/11 00:55:33;;;;;;;25.10;14.00;;;-1.30;99.90;;;;;;5079269;28;20209;-87
2021/01/11 00:58:00;;;;;;;26.98;13.63;;;-1.30;99.90;;;;;;5079006;28;20212;-85
2021/01/11 01:00:26;;;;;;;23.42;13.50;;;-1.40;99.90;;;;;;5088916;28;20198;-83
2021/01/11 01:02:53;;;;;;;22.02;13.57;;;-1.10;99.90;;;;;;5088352;28;20233;-84
2021/01/11 01:05:20;;;;;;;21.58;13.05;;;-1.30;99.90;;;;;;5079431;28;20202;-86
2021/01/11 01:07:47;;;;;;;22.60;13.05;;;-1.40;99.90;;;;;;5087201;28;20201;-80
2021/01/11 01:10:14;;;;;;;22.77;13.60;;;-1.30;99.90;;;;;;5094267;28;20273;-84
2021/01/11 01:12:42;;;;;;;24.23;14.18;;;-1.40;99.90;;;;;;5097352;28;20214;-80
2021/01/11 01:15:10;;;;;;;20.33;12.07;;;-1.40;99.90;;;;;;5091994;28;20213;-85
2021/01/11 01:17:37;;;;;;;25.63;14.10;;;-1.40;99.90;;;;;;5083896;28;20236;-81
2021/01/11 01:20:04;;;;;;;27.38;13.65;;;-1.50;99.90;;;;;;5083561;28;20256;-85
2021/01/11 01:22:31;;;;;;;23.35;13.80;;;-1.50;99.90;;;;;;5087214;28;20279;-83
2021/01/11 01:24:58;;;;;;;23.42;14.02;;;-1.60;99.90;;;;;;5092585;28;20201;-85
2021/01/11 01:27:24;;;;;;;25.75;14.77;;;-1.70;99.90;;;;;;5083819;28;20210;-83
2021/01/11 01:29:52;;;;;;;23.13;13.27;;;-1.50;99.90;;;;;;5082730;28;20198;-84
2021/01/11 01:32:18;;;;;;;20.98;13.40;;;-1.70;99.90;;;;;;5077002;28;20225;-85
2021/01/11 01:34:45;;;;;;;22.55;12.85;;;-1.40;99.90;;;;;;5086974;28;20222;-84
2021/01/11 01:37:11;;;;;;;24.40;13.75;;;-1.50;99.90;;;;;;5084282;28;20206;-82
2021/01/11 01:39:38;;;;;;;25.13;13.10;;;-1.50;99.90;;;;;;5093880;28;20212;-82
2021/01/11 01:42:05;;;;;;;20.85;13.43;;;-1.60;99.90;;;;;;5094271;28;20232;-83
2021/01/11 01:44:32;;;;;;;22.63;13.80;;;-1.60;99.90;;;;;;5087479;28;20642;-81
2021/01/11 01:47:00;;;;;;;23.10;13.13;;;-1.60;99.90;;;;;;5083248;28;20217;-87
2021/01/11 01:49:26;;;;;;;22.42;12.85;;;-1.60;99.90;;;;;;5086192;28;20261;-84
2021/01/11 01:51:53;;;;;;;25.15;14.32;;;-1.60;99.90;;;;;;5087564;28;20194;-86
2021/01/11 01:54:20;;;;;;;24.10;13.52;;;-1.60;99.90;;;;;;5086322;28;20198;-83
2021/01/11 01:56:48;;;;;;;29.23;14.82;;;-1.60;99.90;;;;;;5085242;28;20209;-83
2021/01/11 01:59:16;;;;;;;22.70;13.40;;;-1.80;99.90;;;;;;5097865;28;20225;-90
2021/01/11 02:01:45;;;;;;;22.20;13.27;;;-1.80;99.90;;;;;;5089326;28;20301;-86
2021/01/11 02:04:12;;;;;;;22.33;13.57;;;-1.80;99.90;;;;;;5082123;28;20224;-86
2021/01/11 02:06:42;;;;;;;25.73;13.55;;;-1.80;99.90;;;;;;5080416;28;20198;-88
2021/01/11 02:09:15;;;;;;;22.92;12.73;;;-1.90;99.90;;;;;;5083586;28;20208;-84
2021/01/11 02:11:48;;;;;;;18.02;11.73;;;-1.70;99.90;;;;;;5089818;28;20224;-86
2021/01/11 02:14:28;;;;;;;21.33;12.98;;;-1.70;99.90;;;;;;5089244;28;20183;-87
2021/01/11 02:17:01;;;;;;;22.83;12.18;;;-1.80;99.90;;;;;;5093138;28;20209;-85
2021/01/11 02:20:00;;;;;;;24.38;12.15;;;-1.70;99.90;;;;;;5096130;28;20210;-82
2021/01/11 02:22:34;;;;;;;22.02;12.02;;;-1.70;99.90;;;;;;5094694;28;20214;-82
2021/01/11 02:25:19;;;;;;;19.52;11.15;;;-2.00;99.90;;;;;;5099062;28;20190;-86
2021/01/11 02:27:48;;;;;;;22.90;12.48;;;-2.10;99.90;;;;;;5095648;28;20190;-84
2021/01/11 02:30:33;;;;;;;21.55;11.80;;;-1.90;99.90;;;;;;5081634;28;20813;-88
2021/01/11 02:33:06;;;;;;;21.98;11.65;;;-1.90;99.90;;;;;;5081218;28;20217;-89
2021/01/11 02:35:53;;;;;;;22.63;11.85;;;-1.70;99.90;;;;;;5086877;28;20212;-81
2021/01/11 02:38:22;;;;;;;23.08;11.88;;;-1.90;99.90;;;;;;5096284;28;20193;-83
2021/01/11 02:40:49;;;;;;;26.52;13.30;;;-1.90;99.90;;;;;;5093373;28;20198;-81
2021/01/11 02:43:18;;;;;;;21.33;13.23;;;-1.90;99.90;;;;;;5097594;28;20249;-80
2021/01/11 02:45:46;;;;;;;22.23;12.57;;;-2.10;99.90;;;;;;5096249;28;20232;-82
2021/01/11 02:48:18;;;;;;;22.02;11.60;;;-2.00;99.90;;;;;;5093059;28;20208;-87
2021/01/11 02:50:52;;;;;;;22.08;11.23;;;-2.20;99.90;;;;;;5076340;28;20190;-87
2021/01/11 02:53:40;;;;;;;22.20;11.07;;;-2.10;99.90;;;;;;5076785;28;20229;-87
2021/01/11 02:56:12;;;;;;;23.38;12.32;;;-2.10;99.90;;;;;;5075570;28;20213;-86
2021/01/11 02:59:01;;;;;;;21.73;12.07;;;-2.10;99.90;;;;;;5075141;28;20224;-86
2021/01/11 03:01:36;;;;;;;21.10;11.80;;;-2.30;99.90;;;;;;5075407;28;20206;-86
2021/01/11 03:04:03;;;;;;;18.50;10.77;;;-2.10;99.90;;;;;;5075158;28;20692;-86
2021/01/11 03:06:31;;;;;;;22.98;11.55;;;-2.00;99.90;;;;;;5075889;28;20674;-86
2021/01/11 03:09:06;;;;;;;20.80;12.43;;;-2.30;99.90;;;;;;5076594;28;20285;-83
2021/01/11 03:11:35;;;;;;;22.75;11.43;;;-2.20;99.90;;;;;;5095213;28;20201;-82
2021/01/11 03:14:02;;;;;;;21.33;11.35;;;-2.40;99.90;;;;;;5141169;22;20247;-83
2021/01/11 03:16:30;;;;;;;23.20;11.65;;;-2.40;99.90;;;;;;5086567;28;20256;-82
2021/01/11 03:18:56;;;;;;;19.08;11.98;;;-2.20;99.90;;;;;;5086899;28;20217;-82
2021/01/11 03:21:23;;;;;;;22.65;12.30;;;-2.40;99.90;;;;;;5089517;28;20217;-82
2021/01/11 03:23:49;;;;;;;20.08;11.50;;;-2.30;99.90;;;;;;5077420;28;20234;-82
2021/01/11 03:26:23;;;;;;;22.10;12.50;;;-2.20;99.90;;;;;;5064351;28;20207;-81
2021/01/11 03:28:49;;;;;;;21.70;11.43;;;-2.10;99.90;;;;;;5060160;28;20211;-82
2021/01/11 03:31:16;;;;;;;18.60;11.90;;;-1.90;99.90;;;;;;5046769;28;20207;-82
2021/01/11 03:33:43;;;;;;;19.67;11.23;;;-2.20;99.90;;;;;;5045025;28;20233;-82
2021/01/11 03:36:10;;;;;;;24.08;13.98;;;-2.20;99.90;;;;;;5058878;28;20207;-82
2021/01/11 03:38:36;;;;;;;24.90;11.80;;;-2.40;99.90;;;;;;5045055;28;20207;-81
2021/01/11 03:41:04;;;;;;;20.23;11.00;;;-2.50;99.90;;;;;;5040095;28;20207;-82
2021/01/11 03:43:31;;;;;;;19.33;11.60;;;-2.30;99.90;;;;;;5059916;28;20236;-82
2021/01/11 03:45:58;;;;;;;21.92;12.35;;;-2.30;99.90;;;;;;5066054;28;20210;-83
2021/01/11 03:48:24;;;;;;;22.50;12.90;;;-2.50;99.90;;;;;;5054025;28;20203;-81
2021/01/11 03:50:52;;;;;;;20.20;11.88;;;-2.50;99.90;;;;;;5057000;28;20198;-83
2021/01/11 03:53:18;;;;;;;21.55;12.10;;;-2.50;99.90;;;;;;5062967;28;20237;-81
2021/01/11 03:55:45;;;;;;;20.77;11.52;;;-2.60;99.90;;;;;;5045921;28;20684;-82
2021/01/11 03:58:11;;;;;;;23.08;13.88;;;-2.40;99.90;;;;;;5059732;28;20210;-82
2021/01/11 04:00:38;;;;;;;22.55;11.60;;;-2.40;99.90;;;;;;5065149;28;20203;-82
2021/01/11 04:03:05;;;;;;;19.88;10.85;;;-2.30;99.90;;;;;;5046849;28;20261;-81
2021/01/11 04:05:33;;;;;;;22.67;11.75;;;-2.50;99.90;;;;;;5061646;28;20221;-81
2021/01/11 04:08:00;;;;;;;20.70;10.75;;;-2.40;99.90;;;;;;5059813;28;20199;-82
2021/01/11 04:10:27;;;;;;;22.00;9.98;;;-2.30;99.90;;;;;;5048386;28;20238;-82
2021/01/11 04:12:53;;;;;;;22.15;11.90;;;-2.60;99.90;;;;;;5052286;28;20291;-83
2021/01/11 04:15:20;;;;;;;21.15;11.88;;;-2.60;99.90;;;;;;5050136;28;20210;-81
2021/01/11 04:17:49;;;;;;;21.40;11.77;;;-2.70;99.90;;;;;;5061762;28;20239;-83
2021/01/11 04:20:16;;;;;;;21.08;11.00;;;-2.60;99.90;;;;;;5064479;28;20270;-82
2021/01/11 04:22:43;;;;;;;20.20;10.82;;;-2.50;99.90;;;;;;5067722;28;20696;-82
2021/01/11 04:25:11;;;;;;;27.05;11.45;;;-2.70;99.90;;;;;;5065002;28;20206;-82
2021/01/11 04:27:38;;;;;;;19.48;10.30;;;-2.50;99.90;;;;;;5068728;28;20264;-81
2021/01/11 04:30:06;;;;;;;20.48;11.20;;;-2.50;99.90;;;;;;5069736;28;20211;-82
2021/01/11 04:32:34;;;;;;;26.08;11.95;;;-2.50;99.90;;;;;;5070267;28;20209;-81
2021/01/11 04:35:02;;;;;;;19.40;11.82;;;-2.60;99.90;;;;;;5071295;28;20244;-80
2021/01/11 04:37:28;;;;;;;21.50;11.65;;;-2.70;99.90;;;;;;5047071;28;20208;-81
2021/01/11 04:39:55;;;;;;;21.92;11.27;;;-2.80;99.90;;;;;;5045206;28;20311;-82
2021/01/11 04:42:28;;;;;;;18.98;11.32;;;-2.60;99.90;;;;;;5066194;28;20294;-81
2021/01/11 04:44:56;;;;;;;20.42;12.02;;;-2.60;99.90;;;;;;5062201;28;20254;-81
2021/01/11 04:47:24;;;;;;;25.55;11.77;;;-2.60;99.90;;;;;;5064194;28;20209;-82
2021/01/11 04:49:52;;;;;;;25.20;13.38;;;-2.80;99.90;;;;;;5072597;28;20211;-83
2021/01/11 04:52:20;;;;;;;19.30;9.80;;;-2.80;99.90;;;;;;5049009;28;20259;-82
2021/01/11 04:54:50;;;;;;;20.92;11.55;;;-2.80;99.90;;;;;;5063204;28;20206;-83
2021/01/11 04:57:16;;;;;;;18.35;10.07;;;-2.70;99.90;;;;;;5065896;28;20207;-82
2021/01/11 04:59:50;;;;;;;20.50;10.95;;;-2.60;99.90;;;;;;5050726;28;20207;-81
2021/01/11 05:02:21;;;;;;;21.55;10.65;;;-2.80;99.90;;;;;;5055734;28;20218;-81
2021/01/11 05:04:48;;;;;;;18.58;10.35;;;-2.70;99.90;;;;;;5064219;28;20207;-82
2021/01/11 05:07:16;;;;;;;20.85;11.25;;;-2.70;99.90;;;;;;5047527;28;20748;-83
2021/01/11 05:09:45;;;;;;;17.70;10.82;;;-2.90;99.90;;;;;;5044563;28;20278;-81
2021/01/11 05:12:14;;;;;;;20.33;10.80;;;-2.80;99.90;;;;;;5047009;28;20206;-83
2021/01/11 05:14:41;;;;;;;22.73;11.30;;;-2.70;99.90;;;;;;5054366;28;20249;-82
2021/01/11 05:17:10;;;;;;;20.45;11.00;;;-3.00;99.90;;;;;;5059003;28;20247;-82
2021/01/11 05:19:37;;;;;;;19.60;11.30;;;-2.80;99.90;;;;;;5065190;28;20237;-83
2021/01/11 05:22:09;;;;;;;20.67;11.45;;;-3.00;99.90;;;;;;5061982;28;20207;-83
2021/01/11 05:24:37;;;;;;;22.75;10.18;;;-2.90;99.90;;;;;;5064608;28;20257;-83
2021/01/11 05:27:05;;;;;;;17.25;10.25;;;-2.80;99.90;;;;;;5054459;28;20272;-82
2021/01/11 05:29:32;;;;;;;18.17;11.10;;;-3.00;99.90;;;;;;5046294;28;20219;-82
2021/01/11 05:32:00;;;;;;;21.58;11.73;;;-2.80;99.90;;;;;;5061138;28;20301;-83
2021/01/11 05:34:48;;;;;;;19.60;10.85;;;-3.00;99.90;;;;;;5057118;28;20226;-81
2021/01/11 05:37:36;;;;;;;20.60;10.60;;;-2.90;99.90;;;;;;5061372;28;20263;-81
2021/01/11 05:40:08;;;;;;;19.70;10.80;;;-2.70;99.90;;;;;;5062333;28;20254;-80
2021/01/11 05:42:36;;;;;;;23.40;11.70;;;-2.90;99.90;;;;;;5066685;28;20219;-81
2021/01/11 05:45:14;;;;;;;22.98;10.77;;;-2.80;99.90;;;;;;5061603;28;20203;-82
2021/01/11 05:48:11;;;;;;;22.90;11.80;;;-2.90;99.90;;;;;;5063148;28;20223;-82
2021/01/11 05:50:40;;;;;;;20.45;10.60;;;-2.70;99.90;;;;;;5046306;28;20673;-82
2021/01/11 05:53:16;;;;;;;23.55;12.02;;;-2.90;99.90;;;;;;5047980;28;20295;-83
2021/01/11 05:55:42;;;;;;;20.33;11.43;;;-2.90;99.90;;;;;;5061910;28;20210;-83
2021/01/11 05:58:10;;;;;;;22.88;11.93;;;-2.70;99.90;;;;;;5067972;28;20227;-83
2021/01/11 06:00:38;;;;;;;22.73;11.30;;;-2.70;99.90;;;;;;5056021;28;20207;-83
2021/01/11 06:03:06;;;;;;;19.65;10.40;;;-2.80;99.90;;;;;;5061052;28;20236;-82
2021/01/11 06:05:34;;;;;;;23.98;10.27;;;-2.80;99.90;;;;;;5075208;28;20202;-83
2021/01/11 06:08:03;;;;;;;20.38;10.95;;;-3.00;99.90;;;;;;5067441;28;20210;-83
2021/01/11 06:10:30;;;;;;;16.17;10.82;;;-2.80;99.90;;;;;;5057219;28;20306;-82
2021/01/11 06:12:56;;;;;;;20.33;11.02;;;-2.90;99.90;;;;;;5050957;28;20295;-82
2021/01/11 06:15:25;;;;;;;18.70;10.88;;;-2.80;99.90;;;;;;5072313;28;20278;-82
2021/01/11 06:17:53;;;;;;;20.25;11.00;;;-2.70;99.90;;;;;;5059440;28;20266;-80
2021/01/11 06:20:21;;;;;;;21.30;11.77;;;-2.80;99.90;;;;;;5057072;28;20196;-82
2021/01/11 06:23:05;;;;;;;30.88;12.57;;;-3.00;99.90;;;;;;5040588;28;20621;-81
2021/01/11 06:25:36;;;;;;;26.67;11.82;;;-2.90;99.90;;;;;;5053906;28;20214;-82
2021/01/11 06:28:04;;;;;;;19.70;10.80;;;-2.80;99.90;;;;;;5067085;28;20215;-81
2021/01/11 06:30:39;;;;;;;26.42;11.43;;;-3.00;99.90;;;;;;5048943;28;20326;-83
2021/01/11 06:33:07;;;;;;;21.55;11.13;;;-3.00;99.90;;;;;;5060581;28;20221;-83
2021/01/11 06:35:35;;;;;;;24.33;13.30;;;-2.80;99.90;;;;;;5088247;28;20296;-82
2021/01/11 06:38:11;;;;;;;20.02;11.02;;;-3.00;99.90;;;;;;5069360;28;20203;-83
2021/01/11 06:40:39;;;;;;;21.10;12.00;;;-3.00;99.90;;;;;;5043443;28;20290;-83
2021/01/11 06:43:05;;;;;;;21.63;11.95;;;-2.70;99.90;;;;;;5050568;28;20236;-82
2021/01/11 06:45:36;;;;;;;20.42;11.13;;;-3.00;99.90;;;;;;5064409;28;20617;-81
2021/01/11 06:48:05;;;;;;;20.33;10.68;;;-2.90;99.90;;;;;;5066615;28;20199;-81
2021/01/11 06:50:32;;;;;;;26.80;11.90;;;-2.80;99.90;;;;;;5046372;28;20199;-81
2021/01/11 06:53:03;;;;;;;21.67;11.27;;;-2.90;99.90;;;;;;5059194;28;20307;-83
2021/01/11 06:55:31;;;;;;;25.45;12.00;;;-2.90;99.90;;;;;;5070462;28;20210;-82
2021/01/11 06:57:59;;;;;;;25.85;12.13;;;-2.80;99.90;;;;;;5071909;28;20254;-81
2021/01/11 07:00:37;;;;;;;24.08;13.52;;;-2.70;99.90;;;;;;5072686;28;20209;-81
2021/01/11 07:03:05;;;;;;;20.70;12.05;;;-3.00;99.90;;;;;;5063116;28;20263;-80
2021/01/11 07:05:45;;;;;;;22.55;11.82;;;-2.90;99.90;;;;;;5092895;28;20208;-82
2021/01/11 07:08:15;;;;;;;24.00;13.57;;;-2.90;99.90;;;;;;5046613;28;20242;-82
2021/01/11 07:10:43;;;;;;;22.23;12.25;;;-2.90;99.90;;;;;;5047128;28;20226;-83
2021/01/11 07:13:29;;;;;;;26.95;12.38;;;-3.10;99.90;;;;;;5045250;28;20261;-84
2021/01/11 07:16:13;;;;;;;18.55;11.20;;;-3.10;99.90;;;;;;5049442;28;20211;-84
2021/01/11 07:18:56;;;;;;;26.42;11.98;;;-2.90;99.90;;;;;;5066473;28;20260;-83
2021/01/11 07:21:25;;;;;;;22.58;13.10;;;-3.20;99.90;;;;;;5058433;28;20313;-82
2021/01/11 07:23:53;;;;;;;24.13;12.82;;;-2.80;99.90;;;;;;5064344;28;20285;-83
2021/01/11 07:26:22;;;;;;;23.55;12.90;;;-2.80;99.90;;;;;;5055739;28;20215;-83
2021/01/11 07:28:56;;;;;;;25.80;13.25;;;-2.90;99.90;;;;;;5043180;28;20207;-83
2021/01/11 07:31:31;;;;;;;26.63;14.23;;;-2.90;99.90;;;;;;5039766;28;20207;-82
2021/01/11 07:34:01;;;;;;;25.63;11.88;;;-2.60;99.90;;;;;;5059203;28;20238;-81
2021/01/11 07:36:39;;;;;;;24.40;12.32;;;-2.80;99.90;;;;;;5064251;28;20210;-81
2021/01/11 07:39:17;;;;;;;19.83;12.35;;;-2.90;99.90;;;;;;5077873;28;20216;-82
2021/01/11 07:41:47;;;;;;;24.38;12.13;;;-3.00;99.90;;;;;;5049075;28;20207;-81
2021/01/11 07:44:19;;;;;;;20.33;12.02;;;-3.20;99.90;;;;;;5046616;28;20353;-83
2021/01/11 07:46:53;;;;;;;31.20;14.10;;;-3.00;99.90;;;;;;5066942;28;20208;-82
2021/01/11 07:49:19;;;;;;;22.58;12.93;;;-2.90;99.90;;;;;;5081966;28;20221;-82
2021/01/11 07:51:49;;;;;;;24.67;13.57;;;-3.10;99.90;;;;;;5044571;28;20299;-82
2021/01/11 07:54:17;;;;;;;22.30;12.27;;;-3.00;99.90;;;;;;5042279;28;20284;-82
2021/01/11 07:56:46;;;;;;;26.05;12.65;;;-2.90;99.90;;;;;;5062144;28;20202;-82
2021/01/11 07:59:13;;;;;;;21.00;11.65;;;-2.80;99.90;;;;;;5061308;28;20386;-82
2021/01/11 08:01:42;;;;;;;25.42;13.20;;;-2.90;99.90;;;;;;5044975;28;20238;-82
2021/01/11 08:04:15;;;;;;;24.33;12.82;;;-2.70;99.90;;;;;;5050012;28;20260;-83
2021/01/11 08:06:50;;;;;;;25.08;13.57;;;-2.70;99.90;;;;;;5071608;28;20178;-81
2021/01/11 08:09:17;;;;;;;21.65;12.77;;;-2.80;99.90;;;;;;5069187;28;20210;-82
2021/01/11 08:11:46;;;;;;;27.67;14.50;;;-2.70;99.90;;;;;;5060872;28;20203;-83
2021/01/11 08:14:13;;;;;;;24.23;14.27;;;-2.70;99.90;;;;;;5061146;28;20226;-84
2021/01/11 08:16:41;;;;;;;28.52;14.70;;;-2.80;99.90;;;;;;5056558;28;20222;-82
2021/01/11 08:19:08;;;;;;;30.30;15.30;;;-2.60;99.90;;;;;;5043661;28;20235;-82
2021/01/11 08:21:36;;;;;;;26.50;15.13;;;-2.60;99.90;;;;;;5034118;28;20218;-82
2021/01/11 08:24:07;;;;;;;27.80;15.90;;;-2.40;99.90;;;;;;5033785;28;20305;-83
2021/01/11 08:26:43;;;;;;;27.80;14.93;;;-2.40;99.90;;;;;;5046277;28;20203;-83
2021/01/11 08:29:14;;;;;;;27.35;13.75;;;-2.60;99.90;;;;;;5057044;28;20214;-83
2021/01/11 08:31:43;;;;;;;31.75;14.40;;;-2.30;99.90;;;;;;5045365;28;20206;-84
2021/01/11 08:34:09;;;;;;;29.30;15.07;;;-2.20;99.90;;;;;;5056078;28;20229;-83
2021/01/11 08:36:36;;;;;;;30.02;14.50;;;-2.30;99.90;;;;;;5070848;28;20228;-82
2021/01/11 08:39:11;;;;;;;26.77;14.02;;;-2.30;99.90;;;;;;5061046;28;20199;-83
2021/01/11 08:41:41;;;;;;;29.17;14.48;;;-2.10;99.90;;;;;;5041902;28;20219;-80
2021/01/11 08:44:22;;;;;;;29.58;16.27;;;-2.20;99.90;;;;;;5048816;28;20231;-82
2021/01/11 08:46:59;;;;;;;25.55;13.88;;;-2.10;99.90;;;;;;5047793;28;20208;-81
2021/01/11 08:49:26;;;;;;;28.38;15.82;;;-1.80;99.90;;;;;;5046830;28;20203;-81
2021/01/11 08:51:53;;;;;;;28.88;14.68;;;-1.70;99.90;;;;;;5047236;28;20203;-80
2021/01/11 08:54:30;;;;;;;28.75;15.70;;;-1.70;99.90;;;;;;5043477;28;20251;-81
2021/01/11 08:56:58;;;;;;;27.80;13.38;;;-1.70;99.90;;;;;;5050169;28;20237;-81
2021/01/11 08:59:26;;;;;;;27.83;13.65;;;-1.50;99.90;;;;;;5056472;28;20217;-82
2021/01/11 09:01:53;;;;;;;32.15;15.05;;;-1.30;99.90;;;;;;5046884;28;20211;-81
2021/01/11 09:04:34;;;;;;;24.55;12.63;;;-1.50;99.90;;;;;;5048664;28;20237;-81
2021/01/11 09:07:02;;;;;;;25.52;14.30;;;-1.30;99.90;;;;;;5082037;28;20214;-79
2021/01/11 09:09:30;;;;;;;23.80;13.20;;;-1.30;99.90;;;;;;5069430;28;20579;-76
2021/01/11 09:12:05;;;;;;;22.83;12.15;;;-1.40;99.90;;;;;;5044676;28;20241;-82
2021/01/11 09:14:32;;;;;;;21.40;12.77;;;-1.50;99.90;;;;;;5059297;28;20241;-82
2021/01/11 09:17:04;;;;;;;25.98;13.15;;;-1.50;99.90;;;;;;5061513;28;20209;-82
2021/01/11 09:19:32;;;;;;;22.77;13.35;;;-1.20;99.90;;;;;;5057891;28;20194;-82
2021/01/11 09:22:05;;;;;;;24.30;13.30;;;-1.00;99.90;;;;;;5047476;28;20242;-82
2021/01/11 09:24:33;;;;;;;25.85;14.93;;;-1.00;99.90;;;;;;5038718;28;20231;-82
2021/01/11 09:26:59;;;;;;;25.60;14.05;;;-1.20;99.90;;;;;;5050114;28;20202;-79
2021/01/11 09:29:26;;;;;;;23.38;14.05;;;-1.00;99.90;;;;;;5051024;28;20632;-79
2021/01/11 09:31:53;;;;;;;27.48;14.65;;;-0.80;99.90;;;;;;5052744;28;20206;-78
2021/01/11 09:34:21;;;;;;;22.20;13.43;;;-0.80;99.90;;;;;;5061175;28;20222;-79
2021/01/11 09:36:48;;;;;;;27.75;13.80;;;-0.90;99.90;;;;;;5056394;28;20271;-79
2021/01/11 09:39:15;;;;;;;22.23;12.93;;;-1.00;99.90;;;;;;5036861;28;20261;-80
2021/01/11 09:41:43;;;;;;;22.98;13.55;;;-0.90;99.90;;;;;;5057010;28;20203;-81
2021/01/11 09:44:10;;;;;;;26.88;14.35;;;-0.60;99.90;;;;;;5056644;28;20257;-78
2021/01/11 09:46:44;;;;;;;28.17;13.55;;;-0.60;99.90;;;;;;5044539;28;20207;-77
2021/01/11 09:49:11;;;;;;;23.55;13.55;;;-0.60;99.90;;;;;;5073043;28;20227;-80
2021/01/11 09:51:39;;;;;;;31.05;13.57;;;-0.70;99.90;;;;;;5042544;28;20625;-81
2021/01/11 09:54:06;;;;;;;28.13;13.57;;;-0.90;99.90;;;;;;5053337;28;20219;-81
2021/01/11 09:56:34;;;;;;;21.77;13.18;;;-0.40;99.90;;;;;;5058405;28;20199;-81
2021/01/11 09:59:00;;;;;;;19.95;11.77;;;-0.40;99.90;;;;;;5056962;28;20210;-81
2021/01/11 10:01:39;;;;;;;22.92;13.65;;;-0.50;99.90;;;;;;5058634;28;20206;-81
2021/01/11 10:04:06;;;;;;;21.45;12.57;;;-0.30;99.90;;;;;;5057092;28;20684;-82
2021/01/11 10:06:41;;;;;;;24.92;13.50;;;-0.30;99.90;;;;;;5056561;28;20206;-80
2021/01/11 10:09:09;;;;;;;22.73;12.40;;;-0.30;99.90;;;;;;5056236;28;20225;-81
2021/01/11 10:11:36;;;;;;;21.52;13.52;;;-0.20;99.90;;;;;;5057604;28;20211;-81
2021/01/11 10:14:03;;;;;;;23.70;13.10;;;0.10;99.90;;;;;;5058197;28;20242;-81
2021/01/11 10:16:30;;;;;;;20.38;12.68;;;0.00;99.90;;;;;;5057356;28;20299;-80
2021/01/11 10:18:57;;;;;;;17.58;12.00;;;-0.10;99.90;;;;;;5050355;28;20199;-84
2021/01/11 10:21:24;;;;;;;21.08;12.15;;;0.10;99.90;;;;;;5039728;28;20214;-81
2021/01/11 10:23:51;;;;;;;21.65;13.68;;;0.00;99.90;;;;;;5036429;28;20234;-82
2021/01/11 10:26:22;;;;;;;20.70;12.15;;;0.00;99.90;;;;;;5067174;28;20231;-82
2021/01/11 10:28:50;;;;;;;23.98;13.10;;;0.00;99.90;;;;;;5054739;28;20206;-82
2021/01/11 10:31:17;;;;;;;23.13;12.27;;;0.00;99.90;;;;;;5058514;28;20241;-81
2021/01/11 10:33:46;;;;;;;21.48;12.35;;;-0.10;99.90;;;;;;5056424;28;20218;-81
2021/01/11 10:36:13;;;;;;;21.42;11.77;;;0.00;99.90;;;;;;5056297;28;20229;-78
2021/01/11 10:38:40;;;;;;;20.15;11.40;;;0.00;99.90;;;;;;5053757;28;20206;-78
2021/01/11 10:41:07;;;;;;;21.27;12.48;;;0.10;99.90;;;;;;5042803;28;20222;-78
2021/01/11 10:43:35;;;;;;;21.30;12.32;;;0.10;99.90;;;;;;5035130;28;20243;-78
2021/01/11 10:46:02;;;;;;;23.85;12.85;;;0.00;99.90;;;;;;5048840;28;20199;-80
2021/01/11 10:48:29;;;;;;;23.42;13.40;;;0.30;99.90;;;;;;5055850;28;20209;-80
2021/01/11 10:50:55;;;;;;;21.63;11.25;;;0.40;99.90;;;;;;5059717;28;20209;-81
2021/01/11 10:53:22;;;;;;;25.58;13.88;;;0.50;99.90;;;;;;5051492;28;20226;-82
2021/01/11 10:55:51;;;;;;;28.48;12.57;;;0.30;99.90;;;;;;5048681;28;20265;-81
2021/01/11 10:58:19;;;;;;;20.88;12.80;;;0.60;99.90;;;;;;5038200;28;20229;-77
2021/01/11 11:00:47;;;;;;;18.70;10.23;;;0.50;99.90;;;;;;5054454;28;20206;-79
2021/01/11 11:03:13;;;;;;;18.02;11.40;;;0.60;99.90;;;;;;5046451;28;20222;-78
2021/01/11 11:05:40;;;;;;;19.38;10.63;;;0.70;99.90;;;;;;5062660;28;20237;-77
2021/01/11 11:08:06;;;;;;;16.88;9.57;;;0.70;99.90;;;;;;5059076;28;20210;-81
2021/01/11 11:10:33;;;;;;;19.23;11.02;;;0.70;99.90;;;;;;5063120;28;20210;-76
2021/01/11 11:13:00;;;;;;;20.13;10.60;;;0.70;99.90;;;;;;5052147;28;20600;-76
2021/01/11 11:15:26;;;;;;;28.30;10.50;;;0.70;99.90;;;;;;5049707;28;20211;-76
2021/01/11 11:17:54;;;;;;;18.80;11.15;;;0.50;99.90;;;;;;5051763;28;20210;-76
2021/01/11 11:20:20;;;;;;;20.70;11.35;;;0.80;99.90;;;;;;5052017;28;20210;-82
2021/01/11 11:22:47;;;;;;;19.92;11.48;;;0.90;99.90;;;;;;5072762;28;20223;-81
2021/01/11 11:25:15;;;;;;;20.27;10.15;;;0.90;99.90;;;;;;5052375;28;20231;-80
2021/01/11 11:27:41;;;;;;;25.27;12.95;;;0.90;99.90;;;;;;5058486;28;20198;-81
2021/01/11 11:30:10;;;;;;;19.92;11.95;;;0.80;99.90;;;;;;5058969;28;20203;-82
2021/01/11 11:32:36;;;;;;;23.92;12.88;;;0.90;99.90;;;;;;5040233;28;20265;-81
2021/01/11 11:35:05;;;;;;;23.88;12.68;;;0.80;99.90;;;;;;5036317;28;20642;-80
2021/01/11 11:37:35;;;;;;;20.50;12.20;;;0.80;99.90;;;;;;5037021;28;20215;-82
2021/01/11 11:40:03;;;;;;;18.15;10.73;;;1.00;99.90;;;;;;5044546;28;20206;-82
2021/01/11 11:42:34;;;;;;;23.00;11.80;;;1.00;99.90;;;;;;5043738;28;20210;-83
2021/01/11 11:45:01;;;;;;;26.48;11.80;;;0.90;99.90;;;;;;5042557;28;20223;-83
2021/01/11 11:47:31;;;;;;;22.08;12.27;;;1.00;99.90;;;;;;5050182;28;20250;-82
2021/01/11 11:49:57;;;;;;;19.15;11.80;;;0.90;99.90;;;;;;5078581;28;20256;-83
2021/01/11 11:52:25;;;;;;;23.77;11.18;;;1.00;99.90;;;;;;5063495;28;20210;-82
2021/01/11 11:54:51;;;;;;;15.35;10.07;;;1.10;99.90;;;;;;5060310;28;20203;-83
2021/01/11 11:57:18;;;;;;;19.08;10.98;;;1.20;99.90;;;;;;5048745;28;20515;-83
2021/01/11 11:59:45;;;;;;;18.45;10.40;;;1.10;99.90;;;;;;5047277;28;20210;-81
2021/01/11 12:02:12;;;;;;;28.50;15.95;;;1.00;99.90;;;;;;5045465;28;20633;-79
2021/01/11 12:04:39;;;;;;;28.02;11.85;;;1.00;99.90;;;;;;5062756;28;20226;-82
2021/01/11 12:07:05;;;;;;;25.02;11.48;;;1.20;99.90;;;;;;5057164;28;20203;-82
2021/01/11 12:09:33;;;;;;;20.75;11.80;;;1.10;99.90;;;;;;5046373;28;20199;-82
2021/01/11 12:12:00;;;;;;;20.60;12.63;;;1.20;99.90;;;;;;5042655;28;20282;-83
2021/01/11 12:14:27;;;;;;;18.30;10.20;;;1.10;99.90;;;;;;5051206;28;20227;-82
2021/01/11 12:16:53;;;;;;;19.77;10.70;;;1.30;99.90;;;;;;5057392;28;20203;-82
2021/01/11 12:19:20;;;;;;;16.80;10.57;;;1.20;99.90;;;;;;5076743;28;20210;-82
2021/01/11 12:21:47;;;;;;;18.50;10.20;;;1.10;99.90;;;;;;5076984;28;20206;-81
2021/01/11 12:24:13;;;;;;;20.80;11.48;;;1.20;99.90;;;;;;5084332;28;20225;-82
2021/01/11 12:26:48;;;;;;;21.98;11.48;;;1.40;99.90;;;;;;5084195;28;20202;-82
2021/01/11 12:29:16;;;;;;;22.83;11.65;;;1.60;99.90;;;;;;5084264;28;20216;-81
2021/01/11 12:31:45;;;;;;;20.70;13.30;;;1.40;99.90;;;;;;5081005;28;20221;-81
2021/01/11 12:34:12;;;;;;;16.65;10.60;;;1.50;99.90;;;;;;5053913;28;20219;-81
2021/01/11 12:36:39;;;;;;;17.98;10.93;;;1.70;99.90;;;;;;5053267;28;20529;-82
2021/01/11 12:39:08;;;;;;;18.40;9.40;;;1.70;99.90;;;;;;5053768;28;20214;-83